sensor_id;sensor_type;location;lat;lon;timestamp;P1;durP1;ratioP1;P2;durP2;ratioP2
12177;SDS011;6152;48.728;9.256;2024-02-21T00:01:06;4.70;;;2.95;;
12177;SDS011;6152;48.728;9.256;2024-02-21T00:03:32;8.60;;;2.97;;
12177;SDS011;6152;48.728;9.256;2024-02-21T00:05:58;7.63;;;3.33;;
12177;SDS011;6152;48.728;9.256;2024-02-21T00:08:24;7.93;;;3.53;;
12177;SDS011;6152;48.728;9.256;2024-02-21T00:10:50;8.27;;;3.63;;
12177;SDS011;6152;48.728;9.256;2024-02-21T00:13:16;5.97;;;3.70;;
12177;SDS011;6152;48.728;9.256;2024-02-21T00:15:43;7.38;;;3.63;;
12177;SDS011;6152;48.728;9.256;2024-02-21T00:18:09;7.10;;;3.35;;
12177;SDS011;6152;48.728;9.256;2024-02-21T00:20:37;6.95;;;3.42;;
12177;SDS011;6152;48.728;9.256;2024-02-21T00:23:03;6.82;;;3.25;;
12177;SDS011;6152;48.728;9.256;2024-02-21T00:25:29;9.85;;;4.15;;
12177;SDS011;6152;48.728;9.256;2024-02-21T00:27:55;8.13;;;3.58;;
12177;SDS011;6152;48.728;9.256;2024-02-21T00:30:21;10.63;;;3.50;;
12177;SDS011;6152;48.728;9.256;2024-02-21T00:32:47;6.85;;;2.92;;
12177;SDS011;6152;48.728;9.256;2024-02-21T00:35:14;5.93;;;3.10;;
12177;SDS011;6152;48.728;9.256;2024-02-21T00:37:40;6.43;;;2.85;;
12177;SDS011;6152;48.728;9.256;2024-02-21T00:40:06;8.05;;;3.30;;
12177;SDS011;6152;48.728;9.256;2024-02-21T00:42:33;7.30;;;2.50;;
12177;SDS011;6152;48.728;9.256;2024-02-21T00:44:59;6.00;;;2.70;;
12177;SDS011;6152;48.728;9.256;2024-02-21T00:47:25;5.90;;;2.97;;
12177;SDS011;6152;48.728;9.256;2024-02-21T00:49:51;8.95;;;3.08;;
12177;SDS011;6152;48.728;9.256;2024-02-21T00:52:17;5.78;;;2.58;;
12177;SDS011;6152;48.728;9.256;2024-02-21T00:54:43;8.70;;;3.30;;
12177;SDS011;6152;48.728;9.256;2024-02-21T00:57:10;7.35;;;3.25;;
12177;SDS011;6152;48.728;9.256;2024-02-21T00:59:36;7.80;;;3.78;;
12177;SDS011;6152;48.728;9.256;2024-02-21T01:02:02;8.52;;;3.60;;
12177;SDS011;6152;48.728;9.256;2024-02-21T01:04:28;7.47;;;3.70;;
12177;SDS011;6152;48.728;9.256;2024-02-21T01:06:54;4.55;;;3.17;;
12177;SDS011;6152;48.728;9.256;2024-02-21T01:09:20;7.35;;;3.10;;
12177;SDS011;6152;48.728;9.256;2024-02-21T01:11:46;4.15;;;2.95;;
12177;SDS011;6152;48.728;9.256;2024-02-21T01:14:12;6.93;;;3.63;;
12177;SDS011;6152;48.728;9.256;2024-02-21T01:16:39;9.27;;;3.03;;
12177;SDS011;6152;48.728;9.256;2024-02-21T01:19:05;7.43;;;3.72;;
12177;SDS011;6152;48.728;9.256;2024-02-21T01:21:31;6.10;;;3.00;;
12177;SDS011;6152;48.728;9.256;2024-02-21T01:23:57;11.55;;;3.85;;
12177;SDS011;6152;48.728;9.256;2024-02-21T01:26:23;10.43;;;3.55;;
12177;SDS011;6152;48.728;9.256;2024-02-21T01:28:49;9.10;;;2.95;;
12177;SDS011;6152;48.728;9.256;2024-02-21T01:31:15;5.63;;;2.50;;
12177;SDS011;6152;48.728;9.256;2024-02-21T01:33:41;4.45;;;2.78;;
12177;SDS011;6152;48.728;9.256;2024-02-21T01:36:07;4.78;;;2.55;;
12177;SDS011;6152;48.728;9.256;2024-02-21T01:38:34;7.15;;;2.47;;
12177;SDS011;6152;48.728;9.256;2024-02-21T01:41:00;7.45;;;3.10;;
12177;SDS011;6152;48.728;9.256;2024-02-21T01:43:26;11.40;;;2.42;;
12177;SDS011;6152;48.728;9.256;2024-02-21T01:45:53;8.35;;;2.65;;
12177;SDS011;6152;48.728;9.256;2024-02-21T01:48:23;3.88;;;2.25;;
12177;SDS011;6152;48.728;9.256;2024-02-21T01:50:50;6.70;;;2.72;;
12177;SDS011;6152;48.728;9.256;2024-02-21T01:53:22;8.25;;;3.00;;
12177;SDS011;6152;48.728;9.256;2024-02-21T01:55:59;5.40;;;2.50;;
12177;SDS011;6152;48.728;9.256;2024-02-21T01:58:26;7.13;;;2.83;;
12177;SDS011;6152;48.728;9.256;2024-02-21T02:00:53;6.38;;;2.97;;
12177;SDS011;6152;48.728;9.256;2024-02-21T02:03:22;6.20;;;2.63;;
12177;SDS011;6152;48.728;9.256;2024-02-21T02:05:50;6.40;;;2.42;;
12177;SDS011;6152;48.728;9.256;2024-02-21T02:08:17;6.32;;;2.72;;
12177;SDS011;6152;48.728;9.256;2024-02-21T02:10:44;6.43;;;2.65;;
12177;SDS011;6152;48.728;9.256;2024-02-21T02:13:10;6.95;;;2.67;;
12177;SDS011;6152;48.728;9.256;2024-02-21T02:15:44;4.78;;;2.47;;
12177;SDS011;6152;48.728;9.256;2024-02-21T02:18:11;7.80;;;2.67;;
12177;SDS011;6152;48.728;9.256;2024-02-21T02:20:38;8.52;;;2.30;;
12177;SDS011;6152;48.728;9.256;2024-02-21T02:23:12;7.10;;;2.67;;
12177;SDS011;6152;48.728;9.256;2024-02-21T02:25:42;5.03;;;2.47;;
12177;SDS011;6152;48.728;9.256;2024-02-21T02:28:08;5.97;;;2.58;;
12177;SDS011;6152;48.728;9.256;2024-02-21T02:30:35;3.35;;;2.38;;
12177;SDS011;6152;48.728;9.256;2024-02-21T02:33:02;4.68;;;2.28;;
12177;SDS011;6152;48.728;9.256;2024-02-21T02:35:29;5.15;;;2.50;;
12177;SDS011;6152;48.728;9.256;2024-02-21T02:37:55;6.75;;;2.38;;
12177;SDS011;6152;48.728;9.256;2024-02-21T02:40:21;4.55;;;2.20;;
12177;SDS011;6152;48.728;9.256;2024-02-21T02:42:48;5.82;;;2.40;;
12177;SDS011;6152;48.728;9.256;2024-02-21T02:45:17;5.22;;;2.55;;
12177;SDS011;6152;48.728;9.256;2024-02-21T02:47:44;5.30;;;2.38;;
12177;SDS011;6152;48.728;9.256;2024-02-21T02:50:11;5.05;;;2.25;;
12177;SDS011;6152;48.728;9.256;2024-02-21T02:52:37;6.32;;;2.40;;
12177;SDS011;6152;48.728;9.256;2024-02-21T02:55:04;5.03;;;1.98;;
12177;SDS011;6152;48.728;9.256;2024-02-21T02:57:31;5.85;;;2.17;;
12177;SDS011;6152;48.728;9.256;2024-02-21T02:59:57;5.57;;;2.05;;
12177;SDS011;6152;48.728;9.256;2024-02-21T03:02:23;5.30;;;2.03;;
12177;SDS011;6152;48.728;9.256;2024-02-21T03:04:50;6.70;;;2.53;;
12177;SDS011;6152;48.728;9.256;2024-02-21T03:07:16;3.58;;;1.90;;
12177;SDS011;6152;48.728;9.256;2024-02-21T03:09:42;5.28;;;1.95;;
12177;SDS011;6152;48.728;9.256;2024-02-21T03:12:08;6.18;;;2.33;;
12177;SDS011;6152;48.728;9.256;2024-02-21T03:14:35;6.82;;;2.20;;
12177;SDS011;6152;48.728;9.256;2024-02-21T03:17:01;6.40;;;2.55;;
12177;SDS011;6152;48.728;9.256;2024-02-21T03:19:28;6.07;;;2.38;;
12177;SDS011;6152;48.728;9.256;2024-02-21T03:21:54;7.47;;;2.67;;
12177;SDS011;6152;48.728;9.256;2024-02-21T03:24:21;6.50;;;2.45;;
12177;SDS011;6152;48.728;9.256;2024-02-21T03:26:47;2.67;;;1.85;;
12177;SDS011;6152;48.728;9.256;2024-02-21T03:29:16;8.75;;;2.22;;
12177;SDS011;6152;48.728;9.256;2024-02-21T03:31:42;5.18;;;1.85;;
12177;SDS011;6152;48.728;9.256;2024-02-21T03:34:11;7.30;;;2.35;;
12177;SDS011;6152;48.728;9.256;2024-02-21T03:36:38;6.32;;;1.77;;
12177;SDS011;6152;48.728;9.256;2024-02-21T03:39:04;8.55;;;2.65;;
12177;SDS011;6152;48.728;9.256;2024-02-21T03:41:30;6.60;;;2.35;;
12177;SDS011;6152;48.728;9.256;2024-02-21T03:43:56;6.60;;;2.05;;
12177;SDS011;6152;48.728;9.256;2024-02-21T03:46:23;4.63;;;1.63;;
12177;SDS011;6152;48.728;9.256;2024-02-21T03:48:50;4.72;;;2.10;;
12177;SDS011;6152;48.728;9.256;2024-02-21T03:51:16;3.53;;;1.95;;
12177;SDS011;6152;48.728;9.256;2024-02-21T03:53:42;3.40;;;2.00;;
12177;SDS011;6152;48.728;9.256;2024-02-21T03:56:08;4.30;;;1.90;;
12177;SDS011;6152;48.728;9.256;2024-02-21T03:58:34;7.35;;;1.90;;
12177;SDS011;6152;48.728;9.256;2024-02-21T04:01:01;4.72;;;2.00;;
12177;SDS011;6152;48.728;9.256;2024-02-21T04:03:28;4.70;;;2.08;;
12177;SDS011;6152;48.728;9.256;2024-02-21T04:05:54;4.18;;;1.70;;
12177;SDS011;6152;48.728;9.256;2024-02-21T04:08:21;8.02;;;2.22;;
12177;SDS011;6152;48.728;9.256;2024-02-21T04:10:47;5.55;;;1.88;;
12177;SDS011;6152;48.728;9.256;2024-02-21T04:13:14;4.38;;;1.63;;
12177;SDS011;6152;48.728;9.256;2024-02-21T04:15:40;3.10;;;1.70;;
12177;SDS011;6152;48.728;9.256;2024-02-21T04:18:06;5.38;;;1.55;;
12177;SDS011;6152;48.728;9.256;2024-02-21T04:20:33;6.55;;;2.17;;
12177;SDS011;6152;48.728;9.256;2024-02-21T04:23:00;7.43;;;1.52;;
12177;SDS011;6152;48.728;9.256;2024-02-21T04:25:26;3.78;;;2.08;;
12177;SDS011;6152;48.728;9.256;2024-02-21T04:27:52;6.50;;;1.52;;
12177;SDS011;6152;48.728;9.256;2024-02-21T04:30:18;6.32;;;2.10;;
12177;SDS011;6152;48.728;9.256;2024-02-21T04:32:44;2.85;;;1.55;;
12177;SDS011;6152;48.728;9.256;2024-02-21T04:35:10;6.32;;;1.70;;
12177;SDS011;6152;48.728;9.256;2024-02-21T04:37:36;10.57;;;2.03;;
12177;SDS011;6152;48.728;9.256;2024-02-21T04:40:03;4.97;;;2.08;;
12177;SDS011;6152;48.728;9.256;2024-02-21T04:42:29;4.13;;;1.38;;
12177;SDS011;6152;48.728;9.256;2024-02-21T04:44:55;3.53;;;1.50;;
12177;SDS011;6152;48.728;9.256;2024-02-21T04:47:21;3.25;;;1.33;;
12177;SDS011;6152;48.728;9.256;2024-02-21T04:49:50;3.97;;;1.52;;
12177;SDS011;6152;48.728;9.256;2024-02-21T04:52:16;2.70;;;1.55;;
12177;SDS011;6152;48.728;9.256;2024-02-21T04:54:42;2.25;;;1.38;;
12177;SDS011;6152;48.728;9.256;2024-02-21T04:57:09;4.95;;;1.48;;
12177;SDS011;6152;48.728;9.256;2024-02-21T04:59:35;3.35;;;1.50;;
12177;SDS011;6152;48.728;9.256;2024-02-21T05:02:02;2.75;;;1.48;;
12177;SDS011;6152;48.728;9.256;2024-02-21T05:04:28;7.47;;;1.50;;
12177;SDS011;6152;48.728;9.256;2024-02-21T05:06:54;6.60;;;2.80;;
12177;SDS011;6152;48.728;9.256;2024-02-21T05:09:20;7.13;;;1.80;;
12177;SDS011;6152;48.728;9.256;2024-02-21T05:11:46;3.55;;;2.00;;
12177;SDS011;6152;48.728;9.256;2024-02-21T05:14:12;4.35;;;1.38;;
12177;SDS011;6152;48.728;9.256;2024-02-21T05:16:39;5.78;;;1.67;;
12177;SDS011;6152;48.728;9.256;2024-02-21T05:19:05;3.67;;;1.50;;
12177;SDS011;6152;48.728;9.256;2024-02-21T05:21:31;8.00;;;1.85;;
12177;SDS011;6152;48.728;9.256;2024-02-21T05:23:57;6.72;;;1.67;;
12177;SDS011;6152;48.728;9.256;2024-02-21T05:26:25;3.78;;;1.73;;
12177;SDS011;6152;48.728;9.256;2024-02-21T05:28:52;6.07;;;1.50;;
12177;SDS011;6152;48.728;9.256;2024-02-21T05:31:18;3.37;;;1.50;;
12177;SDS011;6152;48.728;9.256;2024-02-21T05:33:45;6.17;;;1.70;;
12177;SDS011;6152;48.728;9.256;2024-02-21T05:36:12;8.53;;;2.77;;
12177;SDS011;6152;48.728;9.256;2024-02-21T05:38:38;5.73;;;1.57;;
12177;SDS011;6152;48.728;9.256;2024-02-21T05:41:04;6.83;;;1.80;;
12177;SDS011;6152;48.728;9.256;2024-02-21T05:43:31;4.33;;;1.83;;
12177;SDS011;6152;48.728;9.256;2024-02-21T05:45:57;4.83;;;1.80;;
12177;SDS011;6152;48.728;9.256;2024-02-21T05:48:23;4.00;;;1.50;;
12177;SDS011;6152;48.728;9.256;2024-02-21T05:50:50;4.83;;;1.60;;
12177;SDS011;6152;48.728;9.256;2024-02-21T05:53:16;4.63;;;2.00;;
12177;SDS011;6152;48.728;9.256;2024-02-21T05:55:42;2.97;;;1.60;;
12177;SDS011;6152;48.728;9.256;2024-02-21T05:58:08;3.30;;;1.70;;
12177;SDS011;6152;48.728;9.256;2024-02-21T06:00:38;3.77;;;1.67;;
12177;SDS011;6152;48.728;9.256;2024-02-21T06:03:05;3.13;;;1.63;;
12177;SDS011;6152;48.728;9.256;2024-02-21T06:05:36;5.67;;;1.93;;
12177;SDS011;6152;48.728;9.256;2024-02-21T06:08:03;6.00;;;1.73;;
12177;SDS011;6152;48.728;9.256;2024-02-21T06:10:30;4.20;;;2.00;;
12177;SDS011;6152;48.728;9.256;2024-02-21T06:12:56;4.97;;;2.03;;
12177;SDS011;6152;48.728;9.256;2024-02-21T06:15:22;5.70;;;2.20;;
12177;SDS011;6152;48.728;9.256;2024-02-21T06:17:48;6.17;;;2.20;;
12177;SDS011;6152;48.728;9.256;2024-02-21T06:20:16;4.63;;;2.70;;
12177;SDS011;6152;48.728;9.256;2024-02-21T06:22:42;7.47;;;2.80;;
12177;SDS011;6152;48.728;9.256;2024-02-21T06:25:08;4.30;;;2.73;;
12177;SDS011;6152;48.728;9.256;2024-02-21T06:27:35;3.63;;;1.90;;
12177;SDS011;6152;48.728;9.256;2024-02-21T06:30:27;6.70;;;2.60;;
12177;SDS011;6152;48.728;9.256;2024-02-21T06:32:53;8.03;;;1.83;;
12177;SDS011;6152;48.728;9.256;2024-02-21T06:35:24;7.60;;;2.13;;
12177;SDS011;6152;48.728;9.256;2024-02-21T06:37:50;5.90;;;2.40;;
12177;SDS011;6152;48.728;9.256;2024-02-21T06:40:21;5.77;;;1.80;;
12177;SDS011;6152;48.728;9.256;2024-02-21T06:42:48;3.97;;;2.20;;
12177;SDS011;6152;48.728;9.256;2024-02-21T06:45:15;6.13;;;2.27;;
12177;SDS011;6152;48.728;9.256;2024-02-21T06:47:41;6.80;;;2.10;;
12177;SDS011;6152;48.728;9.256;2024-02-21T06:50:07;4.90;;;2.00;;
12177;SDS011;6152;48.728;9.256;2024-02-21T06:52:34;7.30;;;2.43;;
12177;SDS011;6152;48.728;9.256;2024-02-21T06:55:01;5.30;;;2.13;;
12177;SDS011;6152;48.728;9.256;2024-02-21T06:57:30;3.67;;;1.77;;
12177;SDS011;6152;48.728;9.256;2024-02-21T06:59:56;4.07;;;1.73;;
12177;SDS011;6152;48.728;9.256;2024-02-21T07:02:23;4.97;;;1.80;;
12177;SDS011;6152;48.728;9.256;2024-02-21T07:04:49;5.63;;;2.10;;
12177;SDS011;6152;48.728;9.256;2024-02-21T07:07:15;3.20;;;1.53;;
12177;SDS011;6152;48.728;9.256;2024-02-21T07:09:41;6.13;;;1.80;;
12177;SDS011;6152;48.728;9.256;2024-02-21T07:12:07;7.17;;;1.83;;
12177;SDS011;6152;48.728;9.256;2024-02-21T07:14:33;4.03;;;1.90;;
12177;SDS011;6152;48.728;9.256;2024-02-21T07:17:01;5.23;;;2.10;;
12177;SDS011;6152;48.728;9.256;2024-02-21T07:19:27;3.93;;;1.97;;
12177;SDS011;6152;48.728;9.256;2024-02-21T07:21:53;2.78;;;1.90;;
12177;SDS011;6152;48.728;9.256;2024-02-21T07:24:19;6.75;;;2.40;;
12177;SDS011;6152;48.728;9.256;2024-02-21T07:26:45;7.88;;;1.88;;
12177;SDS011;6152;48.728;9.256;2024-02-21T07:29:12;4.20;;;2.03;;
12177;SDS011;6152;48.728;9.256;2024-02-21T07:31:41;4.13;;;2.33;;
12177;SDS011;6152;48.728;9.256;2024-02-21T07:34:08;5.78;;;2.70;;
12177;SDS011;6152;48.728;9.256;2024-02-21T07:36:34;6.03;;;2.45;;
12177;SDS011;6152;48.728;9.256;2024-02-21T07:39:02;8.50;;;2.97;;
12177;SDS011;6152;48.728;9.256;2024-02-21T07:41:29;9.35;;;2.92;;
12177;SDS011;6152;48.728;9.256;2024-02-21T07:43:56;6.13;;;2.63;;
12177;SDS011;6152;48.728;9.256;2024-02-21T07:46:22;7.30;;;2.80;;
12177;SDS011;6152;48.728;9.256;2024-02-21T07:48:48;4.22;;;2.47;;
12177;SDS011;6152;48.728;9.256;2024-02-21T07:51:15;8.07;;;2.45;;
12177;SDS011;6152;48.728;9.256;2024-02-21T07:53:43;7.93;;;2.97;;
12177;SDS011;6152;48.728;9.256;2024-02-21T07:56:13;4.78;;;2.30;;
12177;SDS011;6152;48.728;9.256;2024-02-21T07:58:40;5.38;;;2.90;;
12177;SDS011;6152;48.728;9.256;2024-02-21T08:01:07;7.88;;;2.72;;
12177;SDS011;6152;48.728;9.256;2024-02-21T08:03:34;7.55;;;2.80;;
12177;SDS011;6152;48.728;9.256;2024-02-21T08:06:00;7.57;;;2.97;;
12177;SDS011;6152;48.728;9.256;2024-02-21T08:08:28;11.23;;;2.80;;
12177;SDS011;6152;48.728;9.256;2024-02-21T08:10:54;8.50;;;3.10;;
12177;SDS011;6152;48.728;9.256;2024-02-21T08:13:20;5.00;;;3.30;;
12177;SDS011;6152;48.728;9.256;2024-02-21T08:15:46;11.23;;;2.90;;
12177;SDS011;6152;48.728;9.256;2024-02-21T08:18:12;4.93;;;2.47;;
12177;SDS011;6152;48.728;9.256;2024-02-21T08:20:38;6.57;;;2.08;;
12177;SDS011;6152;48.728;9.256;2024-02-21T08:23:04;5.53;;;2.30;;
12177;SDS011;6152;48.728;9.256;2024-02-21T08:25:30;6.93;;;1.90;;
12177;SDS011;6152;48.728;9.256;2024-02-21T08:27:57;4.22;;;1.60;;
12177;SDS011;6152;48.728;9.256;2024-02-21T08:30:24;5.35;;;1.65;;
12177;SDS011;6152;48.728;9.256;2024-02-21T08:32:50;3.42;;;1.80;;
12177;SDS011;6152;48.728;9.256;2024-02-21T08:35:17;4.13;;;1.50;;
12177;SDS011;6152;48.728;9.256;2024-02-21T08:37:44;2.63;;;1.30;;
12177;SDS011;6152;48.728;9.256;2024-02-21T08:40:13;4.85;;;1.48;;
12177;SDS011;6152;48.728;9.256;2024-02-21T08:42:42;4.18;;;1.40;;
12177;SDS011;6152;48.728;9.256;2024-02-21T08:45:09;3.97;;;1.23;;
12177;SDS011;6152;48.728;9.256;2024-02-21T08:47:35;3.33;;;1.63;;
12177;SDS011;6152;48.728;9.256;2024-02-21T08:50:04;3.38;;;1.25;;
12177;SDS011;6152;48.728;9.256;2024-02-21T08:52:31;2.85;;;1.30;;
12177;SDS011;6152;48.728;9.256;2024-02-21T08:54:57;3.63;;;1.17;;
12177;SDS011;6152;48.728;9.256;2024-02-21T08:57:23;5.63;;;1.45;;
12177;SDS011;6152;48.728;9.256;2024-02-21T08:59:49;3.13;;;1.90;;
12177;SDS011;6152;48.728;9.256;2024-02-21T09:02:15;3.95;;;1.60;;
12177;SDS011;6152;48.728;9.256;2024-02-21T09:04:41;4.13;;;1.67;;
12177;SDS011;6152;48.728;9.256;2024-02-21T09:07:09;6.75;;;1.58;;
12177;SDS011;6152;48.728;9.256;2024-02-21T09:09:35;5.10;;;1.50;;
12177;SDS011;6152;48.728;9.256;2024-02-21T09:12:03;3.67;;;1.27;;
12177;SDS011;6152;48.728;9.256;2024-02-21T09:14:32;5.25;;;1.10;;
12177;SDS011;6152;48.728;9.256;2024-02-21T09:16:58;5.47;;;1.60;;
12177;SDS011;6152;48.728;9.256;2024-02-21T09:19:25;4.95;;;1.42;;
12177;SDS011;6152;48.728;9.256;2024-02-21T09:21:51;2.90;;;1.35;;
12177;SDS011;6152;48.728;9.256;2024-02-21T09:24:17;2.67;;;1.40;;
12177;SDS011;6152;48.728;9.256;2024-02-21T09:26:43;3.53;;;1.13;;
12177;SDS011;6152;48.728;9.256;2024-02-21T09:29:09;5.55;;;1.30;;
12177;SDS011;6152;48.728;9.256;2024-02-21T09:31:35;2.80;;;1.30;;
12177;SDS011;6152;48.728;9.256;2024-02-21T09:34:03;5.65;;;1.40;;
12177;SDS011;6152;48.728;9.256;2024-02-21T09:36:30;4.65;;;1.67;;
12177;SDS011;6152;48.728;9.256;2024-02-21T09:38:56;6.35;;;1.10;;
12177;SDS011;6152;48.728;9.256;2024-02-21T09:41:25;4.63;;;1.40;;
12177;SDS011;6152;48.728;9.256;2024-02-21T09:43:53;2.50;;;1.08;;
12177;SDS011;6152;48.728;9.256;2024-02-21T09:46:19;3.00;;;0.90;;
12177;SDS011;6152;48.728;9.256;2024-02-21T09:49:29;4.25;;;1.67;;
12177;SDS011;6152;48.728;9.256;2024-02-21T09:51:57;3.72;;;1.13;;
12177;SDS011;6152;48.728;9.256;2024-02-21T09:54:30;3.42;;;1.00;;
12177;SDS011;6152;48.728;9.256;2024-02-21T09:56:57;2.50;;;0.93;;
12177;SDS011;6152;48.728;9.256;2024-02-21T09:59:27;3.53;;;1.00;;
12177;SDS011;6152;48.728;9.256;2024-02-21T10:01:55;4.32;;;1.10;;
12177;SDS011;6152;48.728;9.256;2024-02-21T10:04:21;4.03;;;1.13;;
12177;SDS011;6152;48.728;9.256;2024-02-21T10:06:48;3.33;;;1.10;;
12177;SDS011;6152;48.728;9.256;2024-02-21T10:11:49;5.85;;;0.98;;
12177;SDS011;6152;48.728;9.256;2024-02-21T10:14:16;6.68;;;1.20;;
12177;SDS011;6152;48.728;9.256;2024-02-21T10:16:43;3.85;;;0.90;;
12177;SDS011;6152;48.728;9.256;2024-02-21T10:19:19;2.35;;;0.80;;
12177;SDS011;6152;48.728;9.256;2024-02-21T10:24:34;1.42;;;0.82;;
12177;SDS011;6152;48.728;9.256;2024-02-21T10:27:03;1.65;;;0.93;;
12177;SDS011;6152;48.728;9.256;2024-02-21T10:29:33;3.17;;;0.98;;
12177;SDS011;6152;48.728;9.256;2024-02-21T10:32:18;4.10;;;1.00;;
12177;SDS011;6152;48.728;9.256;2024-02-21T10:34:44;2.47;;;0.95;;
12177;SDS011;6152;48.728;9.256;2024-02-21T10:37:11;2.90;;;0.90;;
12177;SDS011;6152;48.728;9.256;2024-02-21T10:39:38;2.90;;;0.82;;
12177;SDS011;6152;48.728;9.256;2024-02-21T10:42:06;4.82;;;1.08;;
12177;SDS011;6152;48.728;9.256;2024-02-21T10:44:38;3.28;;;0.88;;
12177;SDS011;6152;48.728;9.256;2024-02-21T10:47:09;3.30;;;1.00;;
12177;SDS011;6152;48.728;9.256;2024-02-21T10:49:40;3.30;;;1.02;;
12177;SDS011;6152;48.728;9.256;2024-02-21T10:55:04;2.15;;;0.63;;
12177;SDS011;6152;48.728;9.256;2024-02-21T10:57:35;4.68;;;0.88;;
12177;SDS011;6152;48.728;9.256;2024-02-21T11:00:03;2.03;;;0.68;;
12177;SDS011;6152;48.728;9.256;2024-02-21T11:02:33;4.30;;;0.95;;
12177;SDS011;6152;48.728;9.256;2024-02-21T11:05:00;2.58;;;0.80;;
12177;SDS011;6152;48.728;9.256;2024-02-21T11:07:28;1.30;;;0.60;;
12177;SDS011;6152;48.728;9.256;2024-02-21T11:09:57;3.63;;;0.75;;
12177;SDS011;6152;48.728;9.256;2024-02-21T11:12:25;4.32;;;0.95;;
12177;SDS011;6152;48.728;9.256;2024-02-21T11:14:52;3.33;;;0.73;;
12177;SDS011;6152;48.728;9.256;2024-02-21T11:17:29;2.75;;;0.90;;
12177;SDS011;6152;48.728;9.256;2024-02-21T11:19:55;1.75;;;0.60;;
12177;SDS011;6152;48.728;9.256;2024-02-21T11:22:21;4.25;;;0.88;;
12177;SDS011;6152;48.728;9.256;2024-02-21T11:24:49;2.38;;;0.80;;
12177;SDS011;6152;48.728;9.256;2024-02-21T11:27:16;3.70;;;0.60;;
12177;SDS011;6152;48.728;9.256;2024-02-21T11:29:47;3.03;;;0.63;;
12177;SDS011;6152;48.728;9.256;2024-02-21T11:32:16;1.80;;;0.95;;
12177;SDS011;6152;48.728;9.256;2024-02-21T11:35:00;2.70;;;0.80;;
12177;SDS011;6152;48.728;9.256;2024-02-21T11:37:29;3.25;;;0.60;;
12177;SDS011;6152;48.728;9.256;2024-02-21T11:39:58;2.83;;;0.63;;
12177;SDS011;6152;48.728;9.256;2024-02-21T11:42:25;2.28;;;0.50;;
12177;SDS011;6152;48.728;9.256;2024-02-21T11:44:52;3.72;;;0.60;;
12177;SDS011;6152;48.728;9.256;2024-02-21T11:47:21;3.83;;;0.60;;
12177;SDS011;6152;48.728;9.256;2024-02-21T11:49:48;3.13;;;0.73;;
12177;SDS011;6152;48.728;9.256;2024-02-21T11:52:18;1.23;;;0.43;;
12177;SDS011;6152;48.728;9.256;2024-02-21T11:54:52;1.55;;;0.60;;
12177;SDS011;6152;48.728;9.256;2024-02-21T11:57:20;7.80;;;0.85;;
12177;SDS011;6152;48.728;9.256;2024-02-21T11:59:46;6.22;;;1.00;;
12177;SDS011;6152;48.728;9.256;2024-02-21T12:02:14;2.45;;;0.60;;
12177;SDS011;6152;48.728;9.256;2024-02-21T12:04:40;2.78;;;0.60;;
12177;SDS011;6152;48.728;9.256;2024-02-21T12:07:08;2.63;;;0.70;;
12177;SDS011;6152;48.728;9.256;2024-02-21T12:09:41;1.50;;;0.50;;
12177;SDS011;6152;48.728;9.256;2024-02-21T12:12:07;1.70;;;0.43;;
12177;SDS011;6152;48.728;9.256;2024-02-21T12:14:34;2.22;;;0.50;;
12177;SDS011;6152;48.728;9.256;2024-02-21T12:17:01;2.67;;;0.60;;
12177;SDS011;6152;48.728;9.256;2024-02-21T12:19:30;3.08;;;0.80;;
12177;SDS011;6152;48.728;9.256;2024-02-21T12:21:58;1.73;;;1.13;;
12177;SDS011;6152;48.728;9.256;2024-02-21T12:24:25;1.55;;;0.65;;
12177;SDS011;6152;48.728;9.256;2024-02-21T12:26:52;1.40;;;0.65;;
12177;SDS011;6152;48.728;9.256;2024-02-21T12:29:20;2.38;;;0.82;;
12177;SDS011;6152;48.728;9.256;2024-02-21T12:31:46;1.25;;;0.68;;
12177;SDS011;6152;48.728;9.256;2024-02-21T12:34:12;1.25;;;0.50;;
12177;SDS011;6152;48.728;9.256;2024-02-21T12:36:43;1.60;;;0.77;;
12177;SDS011;6152;48.728;9.256;2024-02-21T12:39:12;2.95;;;0.70;;
12177;SDS011;6152;48.728;9.256;2024-02-21T12:41:38;1.65;;;0.60;;
12177;SDS011;6152;48.728;9.256;2024-02-21T12:44:09;0.65;;;0.50;;
12177;SDS011;6152;48.728;9.256;2024-02-21T12:46:38;1.67;;;0.70;;
12177;SDS011;6152;48.728;9.256;2024-02-21T12:49:05;0.77;;;0.45;;
12177;SDS011;6152;48.728;9.256;2024-02-21T12:51:33;4.30;;;0.70;;
12177;SDS011;6152;48.728;9.256;2024-02-21T12:54:00;1.23;;;0.47;;
12177;SDS011;6152;48.728;9.256;2024-02-21T12:56:27;1.27;;;0.68;;
12177;SDS011;6152;48.728;9.256;2024-02-21T12:58:55;2.50;;;0.60;;
12177;SDS011;6152;48.728;9.256;2024-02-21T13:01:22;1.35;;;0.50;;
12177;SDS011;6152;48.728;9.256;2024-02-21T13:03:48;1.77;;;0.57;;
12177;SDS011;6152;48.728;9.256;2024-02-21T13:06:14;1.63;;;0.50;;
12177;SDS011;6152;48.728;9.256;2024-02-21T13:08:40;2.00;;;0.80;;
12177;SDS011;6152;48.728;9.256;2024-02-21T13:11:07;2.53;;;0.60;;
12177;SDS011;6152;48.728;9.256;2024-02-21T13:13:33;4.57;;;0.70;;
12177;SDS011;6152;48.728;9.256;2024-02-21T13:15:59;0.85;;;0.60;;
12177;SDS011;6152;48.728;9.256;2024-02-21T13:18:25;3.35;;;0.50;;
12177;SDS011;6152;48.728;9.256;2024-02-21T13:20:52;1.25;;;0.57;;
12177;SDS011;6152;48.728;9.256;2024-02-21T13:23:18;1.10;;;0.40;;
12177;SDS011;6152;48.728;9.256;2024-02-21T13:25:46;3.03;;;0.70;;
12177;SDS011;6152;48.728;9.256;2024-02-21T13:28:12;1.65;;;0.30;;
12177;SDS011;6152;48.728;9.256;2024-02-21T13:30:41;2.05;;;0.50;;
12177;SDS011;6152;48.728;9.256;2024-02-21T13:33:07;1.52;;;0.40;;
12177;SDS011;6152;48.728;9.256;2024-02-21T13:35:34;2.97;;;0.60;;
12177;SDS011;6152;48.728;9.256;2024-02-21T13:38:01;1.52;;;0.50;;
12177;SDS011;6152;48.728;9.256;2024-02-21T13:40:28;1.85;;;0.30;;
12177;SDS011;6152;48.728;9.256;2024-02-21T13:42:54;1.25;;;0.43;;
12177;SDS011;6152;48.728;9.256;2024-02-21T13:45:20;1.08;;;0.50;;
12177;SDS011;6152;48.728;9.256;2024-02-21T13:47:46;1.13;;;0.38;;
12177;SDS011;6152;48.728;9.256;2024-02-21T13:50:13;0.82;;;0.68;;
12177;SDS011;6152;48.728;9.256;2024-02-21T13:52:40;1.23;;;0.47;;
12177;SDS011;6152;48.728;9.256;2024-02-21T13:55:06;3.17;;;0.50;;
12177;SDS011;6152;48.728;9.256;2024-02-21T13:57:38;0.43;;;0.30;;
12177;SDS011;6152;48.728;9.256;2024-02-21T14:00:04;1.45;;;0.30;;
12177;SDS011;6152;48.728;9.256;2024-02-21T14:02:35;0.40;;;0.40;;
12177;SDS011;6152;48.728;9.256;2024-02-21T14:05:02;1.40;;;0.43;;
12177;SDS011;6152;48.728;9.256;2024-02-21T14:07:30;1.48;;;0.63;;
12177;SDS011;6152;48.728;9.256;2024-02-21T14:10:00;2.22;;;0.60;;
12177;SDS011;6152;48.728;9.256;2024-02-21T14:12:26;1.00;;;0.47;;
12177;SDS011;6152;48.728;9.256;2024-02-21T14:14:53;0.65;;;0.40;;
12177;SDS011;6152;48.728;9.256;2024-02-21T14:17:21;1.10;;;0.30;;
12177;SDS011;6152;48.728;9.256;2024-02-21T14:19:48;2.22;;;0.35;;
12177;SDS011;6152;48.728;9.256;2024-02-21T14:22:14;1.02;;;0.40;;
12177;SDS011;6152;48.728;9.256;2024-02-21T14:24:40;1.23;;;0.40;;
12177;SDS011;6152;48.728;9.256;2024-02-21T14:27:06;1.38;;;0.40;;
12177;SDS011;6152;48.728;9.256;2024-02-21T14:29:33;1.13;;;0.35;;
12177;SDS011;6152;48.728;9.256;2024-02-21T14:32:00;1.35;;;0.60;;
12177;SDS011;6152;48.728;9.256;2024-02-21T14:34:26;0.63;;;0.47;;
12177;SDS011;6152;48.728;9.256;2024-02-21T14:36:52;1.17;;;0.40;;
12177;SDS011;6152;48.728;9.256;2024-02-21T14:39:18;1.50;;;0.40;;
12177;SDS011;6152;48.728;9.256;2024-02-21T14:41:44;0.40;;;0.40;;
12177;SDS011;6152;48.728;9.256;2024-02-21T14:44:10;2.33;;;0.50;;
12177;SDS011;6152;48.728;9.256;2024-02-21T14:46:39;1.50;;;0.30;;
12177;SDS011;6152;48.728;9.256;2024-02-21T14:49:05;0.75;;;0.50;;
12177;SDS011;6152;48.728;9.256;2024-02-21T14:51:31;0.75;;;0.43;;
12177;SDS011;6152;48.728;9.256;2024-02-21T14:53:58;0.88;;;0.70;;
12177;SDS011;6152;48.728;9.256;2024-02-21T14:56:24;1.73;;;0.60;;
12177;SDS011;6152;48.728;9.256;2024-02-21T14:58:51;1.30;;;0.47;;
12177;SDS011;6152;48.728;9.256;2024-02-21T15:01:17;0.85;;;0.68;;
12177;SDS011;6152;48.728;9.256;2024-02-21T15:03:43;1.30;;;0.50;;
12177;SDS011;6152;48.728;9.256;2024-02-21T15:06:09;0.40;;;0.40;;
12177;SDS011;6152;48.728;9.256;2024-02-21T15:08:36;1.38;;;0.82;;